sensor_id;sensor_type;location;lat;lon;timestamp;P1;durP1;ratioP1;P2;durP2;ratioP2
4963;SDS011;2497;47.410;9.740;2023-03-16T00:00:19;1.50;;;1.17;;
4963;SDS011;2497;47.410;9.740;2023-03-16T00:02:46;2.40;;;1.20;;
4963;SDS011;2497;47.410;9.740;2023-03-16T00:05:13;1.40;;;0.93;;
4963;SDS011;2497;47.410;9.740;2023-03-16T00:07:41;1.57;;;1.13;;
4963;SDS011;2497;47.410;9.740;2023-03-16T00:10:09;3.20;;;1.40;;
4963;SDS011;2497;47.410;9.740;2023-03-16T00:12:37;3.93;;;1.50;;
4963;SDS011;2497;47.410;9.740;2023-03-16T00:15:07;3.13;;;1.27;;
4963;SDS011;2497;47.410;9.740;2023-03-16T00:17:37;2.97;;;2.07;;
4963;SDS011;2497;47.410;9.740;2023-03-16T00:20:04;5.40;;;1.07;;
4963;SDS011;2497;47.410;9.740;2023-03-16T00:22:32;3.47;;;1.37;;
4963;SDS011;2497;47.410;9.740;2023-03-16T00:25:00;2.80;;;1.60;;
4963;SDS011;2497;47.410;9.740;2023-03-16T00:27:28;1.50;;;1.40;;
4963;SDS011;2497;47.410;9.740;2023-03-16T00:29:55;1.70;;;1.30;;
4963;SDS011;2497;47.410;9.740;2023-03-16T00:32:23;3.67;;;2.17;;
4963;SDS011;2497;47.410;9.740;2023-03-16T00:34:53;3.80;;;1.40;;
4963;SDS011;2497;47.410;9.740;2023-03-16T00:37:21;2.80;;;1.47;;
4963;SDS011;2497;47.410;9.740;2023-03-16T00:39:49;1.93;;;1.20;;
4963;SDS011;2497;47.410;9.740;2023-03-16T00:42:17;7.53;;;1.70;;
4963;SDS011;2497;47.410;9.740;2023-03-16T00:44:45;3.20;;;1.73;;
4963;SDS011;2497;47.410;9.740;2023-03-16T00:47:12;2.83;;;1.37;;
4963;SDS011;2497;47.410;9.740;2023-03-16T00:49:40;2.80;;;1.67;;
4963;SDS011;2497;47.410;9.740;2023-03-16T00:52:11;1.87;;;1.20;;
4963;SDS011;2497;47.410;9.740;2023-03-16T00:54:40;1.10;;;1.00;;
4963;SDS011;2497;47.410;9.740;2023-03-16T00:57:09;1.83;;;1.20;;
4963;SDS011;2497;47.410;9.740;2023-03-16T00:59:38;2.23;;;1.20;;
4963;SDS011;2497;47.410;9.740;2023-03-16T01:02:05;5.50;;;1.73;;
4963;SDS011;2497;47.410;9.740;2023-03-16T01:04:33;2.53;;;1.40;;
4963;SDS011;2497;47.410;9.740;2023-03-16T01:07:01;1.20;;;1.03;;
4963;SDS011;2497;47.410;9.740;2023-03-16T01:09:30;2.27;;;1.40;;
4963;SDS011;2497;47.410;9.740;2023-03-16T01:12:01;10.73;;;1.20;;
4963;SDS011;2497;47.410;9.740;2023-03-16T01:14:30;2.03;;;1.17;;
4963;SDS011;2497;47.410;9.740;2023-03-16T01:16:58;3.63;;;1.20;;
4963;SDS011;2497;47.410;9.740;2023-03-16T01:19:26;2.27;;;1.10;;
4963;SDS011;2497;47.410;9.740;2023-03-16T01:21:54;3.50;;;1.10;;
4963;SDS011;2497;47.410;9.740;2023-03-16T01:24:21;1.30;;;1.00;;
4963;SDS011;2497;47.410;9.740;2023-03-16T01:26:50;1.97;;;1.30;;
4963;SDS011;2497;47.410;9.740;2023-03-16T01:29:18;2.47;;;1.57;;
4963;SDS011;2497;47.410;9.740;2023-03-16T01:31:46;1.60;;;1.00;;
4963;SDS011;2497;47.410;9.740;2023-03-16T01:34:14;1.57;;;1.00;;
4963;SDS011;2497;47.410;9.740;2023-03-16T01:36:43;3.37;;;1.50;;
4963;SDS011;2497;47.410;9.740;2023-03-16T01:39:12;2.33;;;1.20;;
4963;SDS011;2497;47.410;9.740;2023-03-16T01:41:40;1.70;;;1.13;;
4963;SDS011;2497;47.410;9.740;2023-03-16T01:44:11;2.53;;;1.30;;
4963;SDS011;2497;47.410;9.740;2023-03-16T01:46:39;1.90;;;1.00;;
4963;SDS011;2497;47.410;9.740;2023-03-16T01:49:09;1.00;;;0.90;;
4963;SDS011;2497;47.410;9.740;2023-03-16T01:51:40;2.50;;;1.00;;
4963;SDS011;2497;47.410;9.740;2023-03-16T01:54:10;1.10;;;0.90;;
4963;SDS011;2497;47.410;9.740;2023-03-16T01:56:42;1.10;;;1.00;;
4963;SDS011;2497;47.410;9.740;2023-03-16T01:59:17;1.43;;;1.17;;
4963;SDS011;2497;47.410;9.740;2023-03-16T02:01:47;1.30;;;1.00;;
4963;SDS011;2497;47.410;9.740;2023-03-16T02:04:20;2.10;;;1.10;;
4963;SDS011;2497;47.410;9.740;2023-03-16T02:06:55;2.23;;;1.27;;
4963;SDS011;2497;47.410;9.740;2023-03-16T02:09:23;1.77;;;1.20;;
4963;SDS011;2497;47.410;9.740;2023-03-16T02:11:51;1.17;;;1.07;;
4963;SDS011;2497;47.410;9.740;2023-03-16T02:14:21;1.60;;;1.03;;
4963;SDS011;2497;47.410;9.740;2023-03-16T02:16:49;2.30;;;1.00;;
4963;SDS011;2497;47.410;9.740;2023-03-16T02:19:19;2.00;;;1.07;;
4963;SDS011;2497;47.410;9.740;2023-03-16T02:21:57;1.07;;;0.97;;
4963;SDS011;2497;47.410;9.740;2023-03-16T02:24:27;1.07;;;0.80;;
4963;SDS011;2497;47.410;9.740;2023-03-16T02:26:56;1.37;;;1.10;;
4963;SDS011;2497;47.410;9.740;2023-03-16T02:29:42;1.10;;;0.90;;
4963;SDS011;2497;47.410;9.740;2023-03-16T02:32:23;2.00;;;1.20;;
4963;SDS011;2497;47.410;9.740;2023-03-16T02:34:52;4.17;;;1.10;;
4963;SDS011;2497;47.410;9.740;2023-03-16T02:37:20;2.77;;;1.40;;
4963;SDS011;2497;47.410;9.740;2023-03-16T02:39:47;2.03;;;0.90;;
4963;SDS011;2497;47.410;9.740;2023-03-16T02:42:16;1.10;;;0.97;;
4963;SDS011;2497;47.410;9.740;2023-03-16T02:44:47;5.43;;;1.33;;
4963;SDS011;2497;47.410;9.740;2023-03-16T02:47:19;1.00;;;0.90;;
4963;SDS011;2497;47.410;9.740;2023-03-16T02:49:52;1.10;;;1.00;;
4963;SDS011;2497;47.410;9.740;2023-03-16T02:52:19;1.93;;;1.00;;
4963;SDS011;2497;47.410;9.740;2023-03-16T02:54:46;4.17;;;1.23;;
4963;SDS011;2497;47.410;9.740;2023-03-16T02:57:13;1.30;;;1.00;;
4963;SDS011;2497;47.410;9.740;2023-03-16T02:59:40;1.60;;;1.10;;
4963;SDS011;2497;47.410;9.740;2023-03-16T03:02:09;1.93;;;0.90;;
4963;SDS011;2497;47.410;9.740;2023-03-16T03:04:36;1.00;;;0.90;;
4963;SDS011;2497;47.410;9.740;2023-03-16T03:07:03;1.10;;;1.00;;
4963;SDS011;2497;47.410;9.740;2023-03-16T03:09:31;1.53;;;1.00;;
4963;SDS011;2497;47.410;9.740;2023-03-16T03:11:58;1.70;;;1.30;;
4963;SDS011;2497;47.410;9.740;2023-03-16T03:14:25;1.67;;;1.00;;
4963;SDS011;2497;47.410;9.740;2023-03-16T03:16:53;0.93;;;0.82;;
4963;SDS011;2497;47.410;9.740;2023-03-16T03:19:22;3.33;;;1.10;;
4963;SDS011;2497;47.410;9.740;2023-03-16T03:21:49;1.20;;;1.00;;
4963;SDS011;2497;47.410;9.740;2023-03-16T03:24:21;1.70;;;1.10;;
4963;SDS011;2497;47.410;9.740;2023-03-16T03:26:48;1.73;;;1.40;;
4963;SDS011;2497;47.410;9.740;2023-03-16T03:29:16;2.25;;;0.90;;
4963;SDS011;2497;47.410;9.740;2023-03-16T03:31:44;1.30;;;1.10;;
4963;SDS011;2497;47.410;9.740;2023-03-16T03:34:11;1.70;;;1.20;;
4963;SDS011;2497;47.410;9.740;2023-03-16T03:36:40;1.20;;;1.00;;
4963;SDS011;2497;47.410;9.740;2023-03-16T03:39:07;1.57;;;1.30;;
4963;SDS011;2497;47.410;9.740;2023-03-16T03:41:34;1.77;;;1.20;;
4963;SDS011;2497;47.410;9.740;2023-03-16T03:44:02;1.83;;;1.40;;
4963;SDS011;2497;47.410;9.740;2023-03-16T03:46:30;1.10;;;1.00;;
4963;SDS011;2497;47.410;9.740;2023-03-16T03:48:57;3.50;;;1.52;;
4963;SDS011;2497;47.410;9.740;2023-03-16T03:51:28;1.30;;;1.10;;
4963;SDS011;2497;47.410;9.740;2023-03-16T03:53:57;1.95;;;1.75;;
4963;SDS011;2497;47.410;9.740;2023-03-16T03:56:25;1.97;;;1.47;;
4963;SDS011;2497;47.410;9.740;2023-03-16T03:58:52;2.07;;;1.70;;
4963;SDS011;2497;47.410;9.740;2023-03-16T04:01:19;6.10;;;2.07;;
4963;SDS011;2497;47.410;9.740;2023-03-16T04:03:46;2.60;;;1.37;;
4963;SDS011;2497;47.410;9.740;2023-03-16T04:06:13;5.73;;;1.50;;
4963;SDS011;2497;47.410;9.740;2023-03-16T04:08:41;2.17;;;1.20;;
4963;SDS011;2497;47.410;9.740;2023-03-16T04:11:09;1.67;;;1.10;;
4963;SDS011;2497;47.410;9.740;2023-03-16T04:13:37;1.90;;;1.20;;
4963;SDS011;2497;47.410;9.740;2023-03-16T04:16:04;1.33;;;1.20;;
4963;SDS011;2497;47.410;9.740;2023-03-16T04:18:31;1.20;;;1.10;;
4963;SDS011;2497;47.410;9.740;2023-03-16T04:21:03;2.37;;;1.63;;
4963;SDS011;2497;47.410;9.740;2023-03-16T04:23:31;3.93;;;1.20;;
4963;SDS011;2497;47.410;9.740;2023-03-16T04:25:59;1.30;;;0.98;;
4963;SDS011;2497;47.410;9.740;2023-03-16T04:28:28;2.03;;;1.40;;
4963;SDS011;2497;47.410;9.740;2023-03-16T04:31:00;2.25;;;1.50;;
4963;SDS011;2497;47.410;9.740;2023-03-16T04:33:27;2.45;;;1.27;;
4963;SDS011;2497;47.410;9.740;2023-03-16T04:35:54;2.90;;;1.30;;
4963;SDS011;2497;47.410;9.740;2023-03-16T04:38:21;2.87;;;1.33;;
4963;SDS011;2497;47.410;9.740;2023-03-16T04:40:48;3.67;;;1.60;;
4963;SDS011;2497;47.410;9.740;2023-03-16T04:43:16;3.15;;;1.30;;
4963;SDS011;2497;47.410;9.740;2023-03-16T04:45:45;1.30;;;1.10;;
4963;SDS011;2497;47.410;9.740;2023-03-16T04:48:12;3.00;;;1.40;;
4963;SDS011;2497;47.410;9.740;2023-03-16T04:50:39;2.58;;;1.30;;
4963;SDS011;2497;47.410;9.740;2023-03-16T04:53:06;1.37;;;1.27;;
4963;SDS011;2497;47.410;9.740;2023-03-16T04:55:33;1.40;;;1.00;;
4963;SDS011;2497;47.410;9.740;2023-03-16T04:58:01;1.67;;;1.02;;
4963;SDS011;2497;47.410;9.740;2023-03-16T05:00:28;2.37;;;1.37;;
4963;SDS011;2497;47.410;9.740;2023-03-16T05:02:57;1.63;;;1.10;;
4963;SDS011;2497;47.410;9.740;2023-03-16T05:05:24;1.40;;;0.80;;
4963;SDS011;2497;47.410;9.740;2023-03-16T05:07:51;6.07;;;1.20;;
4963;SDS011;2497;47.410;9.740;2023-03-16T05:10:19;2.08;;;1.30;;
4963;SDS011;2497;47.410;9.740;2023-03-16T05:12:46;3.05;;;1.20;;
4963;SDS011;2497;47.410;9.740;2023-03-16T05:15:13;5.00;;;1.87;;
4963;SDS011;2497;47.410;9.740;2023-03-16T05:17:40;1.85;;;1.27;;
4963;SDS011;2497;47.410;9.740;2023-03-16T05:20:10;3.67;;;1.70;;
4963;SDS011;2497;47.410;9.740;2023-03-16T05:22:39;1.80;;;1.55;;
4963;SDS011;2497;47.410;9.740;2023-03-16T05:25:07;1.90;;;1.65;;
4963;SDS011;2497;47.410;9.740;2023-03-16T05:27:39;2.33;;;1.30;;
4963;SDS011;2497;47.410;9.740;2023-03-16T05:30:07;2.33;;;1.60;;
4963;SDS011;2497;47.410;9.740;2023-03-16T05:32:35;4.32;;;1.48;;
4963;SDS011;2497;47.410;9.740;2023-03-16T05:35:04;1.77;;;1.33;;
4963;SDS011;2497;47.410;9.740;2023-03-16T05:37:33;1.30;;;1.20;;
4963;SDS011;2497;47.410;9.740;2023-03-16T05:40:02;2.75;;;1.25;;
4963;SDS011;2497;47.410;9.740;2023-03-16T05:42:36;1.10;;;1.00;;
4963;SDS011;2497;47.410;9.740;2023-03-16T05:45:03;2.25;;;1.02;;
4963;SDS011;2497;47.410;9.740;2023-03-16T05:47:31;2.40;;;1.23;;
4963;SDS011;2497;47.410;9.740;2023-03-16T05:50:00;3.35;;;1.60;;
4963;SDS011;2497;47.410;9.740;2023-03-16T05:52:27;2.42;;;1.52;;
4963;SDS011;2497;47.410;9.740;2023-03-16T05:54:56;2.40;;;1.40;;
4963;SDS011;2497;47.410;9.740;2023-03-16T05:57:23;3.58;;;1.73;;
4963;SDS011;2497;47.410;9.740;2023-03-16T05:59:50;4.68;;;3.95;;
4963;SDS011;2497;47.410;9.740;2023-03-16T06:02:18;15.95;;;11.35;;
4963;SDS011;2497;47.410;9.740;2023-03-16T06:04:47;4.72;;;3.78;;
4963;SDS011;2497;47.410;9.740;2023-03-16T06:07:14;1.87;;;1.70;;
4963;SDS011;2497;47.410;9.740;2023-03-16T06:09:41;2.07;;;1.30;;
4963;SDS011;2497;47.410;9.740;2023-03-16T06:12:09;5.90;;;1.85;;
4963;SDS011;2497;47.410;9.740;2023-03-16T06:14:37;2.90;;;2.03;;
4963;SDS011;2497;47.410;9.740;2023-03-16T06:17:05;4.90;;;3.00;;
4963;SDS011;2497;47.410;9.740;2023-03-16T06:19:32;6.25;;;2.53;;
4963;SDS011;2497;47.410;9.740;2023-03-16T06:21:59;2.03;;;1.65;;
4963;SDS011;2497;47.410;9.740;2023-03-16T06:24:26;15.83;;;1.60;;
4963;SDS011;2497;47.410;9.740;2023-03-16T06:26:54;9.00;;;2.00;;
4963;SDS011;2497;47.410;9.740;2023-03-16T06:29:22;2.20;;;1.60;;
4963;SDS011;2497;47.410;9.740;2023-03-16T06:31:49;6.00;;;1.53;;
4963;SDS011;2497;47.410;9.740;2023-03-16T06:34:16;7.93;;;4.20;;
4963;SDS011;2497;47.410;9.740;2023-03-16T06:36:44;14.17;;;5.03;;
4963;SDS011;2497;47.410;9.740;2023-03-16T06:39:11;18.90;;;6.40;;
4963;SDS011;2497;47.410;9.740;2023-03-16T06:41:39;20.57;;;4.63;;
4963;SDS011;2497;47.410;9.740;2023-03-16T06:44:08;23.53;;;4.40;;
4963;SDS011;2497;47.410;9.740;2023-03-16T06:46:37;9.47;;;3.80;;
4963;SDS011;2497;47.410;9.740;2023-03-16T06:49:07;10.63;;;3.90;;
4963;SDS011;2497;47.410;9.740;2023-03-16T06:51:34;7.73;;;3.20;;
4963;SDS011;2497;47.410;9.740;2023-03-16T06:54:01;12.30;;;3.83;;
4963;SDS011;2497;47.410;9.740;2023-03-16T06:56:28;10.10;;;2.53;;
4963;SDS011;2497;47.410;9.740;2023-03-16T06:58:55;3.80;;;2.70;;
4963;SDS011;2497;47.410;9.740;2023-03-16T07:01:23;6.57;;;2.40;;
4963;SDS011;2497;47.410;9.740;2023-03-16T07:03:51;2.83;;;1.93;;
4963;SDS011;2497;47.410;9.740;2023-03-16T07:06:18;3.63;;;1.47;;
4963;SDS011;2497;47.410;9.740;2023-03-16T07:08:45;2.10;;;1.40;;
4963;SDS011;2497;47.410;9.740;2023-03-16T07:11:12;3.50;;;1.80;;
4963;SDS011;2497;47.410;9.740;2023-03-16T07:13:40;6.27;;;2.20;;
4963;SDS011;2497;47.410;9.740;2023-03-16T07:16:08;2.20;;;1.63;;
4963;SDS011;2497;47.410;9.740;2023-03-16T07:18:35;3.60;;;2.00;;
4963;SDS011;2497;47.410;9.740;2023-03-16T07:21:05;4.73;;;1.53;;
4963;SDS011;2497;47.410;9.740;2023-03-16T07:23:32;13.67;;;1.80;;
4963;SDS011;2497;47.410;9.740;2023-03-16T07:25:59;2.17;;;1.47;;
4963;SDS011;2497;47.410;9.740;2023-03-16T07:28:27;3.50;;;1.57;;
4963;SDS011;2497;47.410;9.740;2023-03-16T07:30:56;2.13;;;1.47;;
4963;SDS011;2497;47.410;9.740;2023-03-16T07:33:23;1.60;;;1.50;;
4963;SDS011;2497;47.410;9.740;2023-03-16T07:35:50;2.50;;;1.40;;
4963;SDS011;2497;47.410;9.740;2023-03-16T07:38:19;6.07;;;2.30;;
4963;SDS011;2497;47.410;9.740;2023-03-16T07:40:46;3.43;;;1.87;;
4963;SDS011;2497;47.410;9.740;2023-03-16T07:43:13;7.40;;;3.80;;
4963;SDS011;2497;47.410;9.740;2023-03-16T07:45:40;21.47;;;4.37;;
4963;SDS011;2497;47.410;9.740;2023-03-16T07:48:07;17.33;;;4.27;;
4963;SDS011;2497;47.410;9.740;2023-03-16T07:50:34;19.20;;;4.20;;
4963;SDS011;2497;47.410;9.740;2023-03-16T07:53:01;10.87;;;3.90;;
4963;SDS011;2497;47.410;9.740;2023-03-16T07:55:30;7.00;;;4.40;;
4963;SDS011;2497;47.410;9.740;2023-03-16T07:58:00;17.50;;;4.60;;
4963;SDS011;2497;47.410;9.740;2023-03-16T08:00:29;12.33;;;4.80;;
4963;SDS011;2497;47.410;9.740;2023-03-16T08:02:56;17.63;;;5.37;;
4963;SDS011;2497;47.410;9.740;2023-03-16T08:05:23;16.60;;;5.03;;
4963;SDS011;2497;47.410;9.740;2023-03-16T08:07:50;6.73;;;3.13;;
4963;SDS011;2497;47.410;9.740;2023-03-16T08:10:18;6.57;;;2.80;;
4963;SDS011;2497;47.410;9.740;2023-03-16T08:12:46;9.10;;;1.93;;
4963;SDS011;2497;47.410;9.740;2023-03-16T08:15:13;3.70;;;1.63;;
4963;SDS011;2497;47.410;9.740;2023-03-16T08:17:40;2.00;;;1.47;;
4963;SDS011;2497;47.410;9.740;2023-03-16T08:20:08;3.67;;;1.60;;
4963;SDS011;2497;47.410;9.740;2023-03-16T08:22:39;6.20;;;2.07;;
4963;SDS011;2497;47.410;9.740;2023-03-16T08:25:06;3.17;;;1.53;;
4963;SDS011;2497;47.410;9.740;2023-03-16T08:27:35;5.00;;;1.23;;
4963;SDS011;2497;47.410;9.740;2023-03-16T08:30:05;5.50;;;2.10;;
4963;SDS011;2497;47.410;9.740;2023-03-16T08:32:36;4.50;;;2.20;;
4963;SDS011;2497;47.410;9.740;2023-03-16T08:35:04;3.00;;;1.50;;
4963;SDS011;2497;47.410;9.740;2023-03-16T08:37:32;2.83;;;1.77;;
4963;SDS011;2497;47.410;9.740;2023-03-16T08:39:59;6.20;;;1.80;;
4963;SDS011;2497;47.410;9.740;2023-03-16T08:42:26;7.90;;;1.70;;
4963;SDS011;2497;47.410;9.740;2023-03-16T08:44:54;1.80;;;1.37;;
4963;SDS011;2497;47.410;9.740;2023-03-16T08:47:23;2.60;;;1.57;;
4963;SDS011;2497;47.410;9.740;2023-03-16T08:49:50;3.60;;;1.73;;
4963;SDS011;2497;47.410;9.740;2023-03-16T08:52:17;6.70;;;1.83;;
4963;SDS011;2497;47.410;9.740;2023-03-16T08:54:45;6.37;;;1.50;;
4963;SDS011;2497;47.410;9.740;2023-03-16T08:57:12;2.93;;;1.70;;
4963;SDS011;2497;47.410;9.740;2023-03-16T08:59:39;2.53;;;1.63;;
4963;SDS011;2497;47.410;9.740;2023-03-16T09:02:09;3.10;;;1.53;;
4963;SDS011;2497;47.410;9.740;2023-03-16T09:04:39;3.80;;;1.47;;
4963;SDS011;2497;47.410;9.740;2023-03-16T09:07:06;4.53;;;1.70;;
4963;SDS011;2497;47.410;9.740;2023-03-16T09:09:34;5.73;;;1.70;;
4963;SDS011;2497;47.410;9.740;2023-03-16T09:12:01;2.90;;;1.60;;
4963;SDS011;2497;47.410;9.740;2023-03-16T09:14:30;5.03;;;1.60;;
4963;SDS011;2497;47.410;9.740;2023-03-16T09:16:57;2.10;;;1.33;;
4963;SDS011;2497;47.410;9.740;2023-03-16T09:19:24;6.10;;;2.10;;
4963;SDS011;2497;47.410;9.740;2023-03-16T09:21:53;5.60;;;1.70;;
4963;SDS011;2497;47.410;9.740;2023-03-16T09:24:20;5.53;;;1.63;;
4963;SDS011;2497;47.410;9.740;2023-03-16T09:26:48;3.03;;;1.40;;
4963;SDS011;2497;47.410;9.740;2023-03-16T09:29:15;2.23;;;1.50;;
4963;SDS011;2497;47.410;9.740;2023-03-16T09:31:43;2.13;;;1.20;;
4963;SDS011;2497;47.410;9.740;2023-03-16T09:34:10;3.50;;;1.47;;
4963;SDS011;2497;47.410;9.740;2023-03-16T09:36:37;8.10;;;1.60;;
4963;SDS011;2497;47.410;9.740;2023-03-16T09:39:06;2.70;;;1.60;;
4963;SDS011;2497;47.410;9.740;2023-03-16T09:41:40;1.87;;;1.33;;
4963;SDS011;2497;47.410;9.740;2023-03-16T09:44:20;1.47;;;1.10;;
4963;SDS011;2497;47.410;9.740;2023-03-16T09:46:55;6.50;;;1.50;;
4963;SDS011;2497;47.410;9.740;2023-03-16T09:49:26;2.20;;;1.27;;
4963;SDS011;2497;47.410;9.740;2023-03-16T09:51:58;2.23;;;1.40;;
4963;SDS011;2497;47.410;9.740;2023-03-16T09:54:39;2.80;;;1.20;;
4963;SDS011;2497;47.410;9.740;2023-03-16T09:57:16;2.50;;;1.40;;
4963;SDS011;2497;47.410;9.740;2023-03-16T09:59:50;1.27;;;1.10;;
4963;SDS011;2497;47.410;9.740;2023-03-16T10:02:25;1.87;;;1.20;;
4963;SDS011;2497;47.410;9.740;2023-03-16T10:05:19;1.60;;;1.30;;
4963;SDS011;2497;47.410;9.740;2023-03-16T10:07:50;2.20;;;1.20;;
4963;SDS011;2497;47.410;9.740;2023-03-16T10:10:34;1.70;;;1.13;;
4963;SDS011;2497;47.410;9.740;2023-03-16T10:13:26;2.90;;;1.30;;
4963;SDS011;2497;47.410;9.740;2023-03-16T10:16:02;2.53;;;1.17;;
4963;SDS011;2497;47.410;9.740;2023-03-16T10:18:36;2.47;;;1.40;;
4963;SDS011;2497;47.410;9.740;2023-03-16T10:21:10;2.80;;;1.20;;
4963;SDS011;2497;47.410;9.740;2023-03-16T10:23:38;4.30;;;1.37;;
4963;SDS011;2497;47.410;9.740;2023-03-16T10:26:13;2.47;;;1.33;;
4963;SDS011;2497;47.410;9.740;2023-03-16T10:28:47;3.10;;;1.40;;
4963;SDS011;2497;47.410;9.740;2023-03-16T10:31:15;7.93;;;1.30;;
4963;SDS011;2497;47.410;9.740;2023-03-16T10:33:45;1.83;;;1.30;;
4963;SDS011;2497;47.410;9.740;2023-03-16T10:36:17;1.53;;;1.30;;
4963;SDS011;2497;47.410;9.740;2023-03-16T10:38:56;2.43;;;1.30;;
4963;SDS011;2497;47.410;9.740;2023-03-16T10:41:28;5.37;;;1.93;;
4963;SDS011;2497;47.410;9.740;2023-03-16T10:43:57;1.63;;;1.20;;
4963;SDS011;2497;47.410;9.740;2023-03-16T10:46:34;1.80;;;1.23;;
4963;SDS011;2497;47.410;9.740;2023-03-16T10:49:02;2.57;;;1.20;;
4963;SDS011;2497;47.410;9.740;2023-03-16T10:51:31;5.83;;;1.67;;
4963;SDS011;2497;47.410;9.740;2023-03-16T10:54:03;3.37;;;1.43;;
4963;SDS011;2497;47.410;9.740;2023-03-16T10:56:36;3.83;;;1.40;;
4963;SDS011;2497;47.410;9.740;2023-03-16T10:59:23;5.80;;;1.43;;
4963;SDS011;2497;47.410;9.740;2023-03-16T11:01:56;2.03;;;1.47;;
4963;SDS011;2497;47.410;9.740;2023-03-16T11:04:23;2.67;;;1.20;;
4963;SDS011;2497;47.410;9.740;2023-03-16T11:06:52;3.63;;;1.30;;
4963;SDS011;2497;47.410;9.740;2023-03-16T11:09:24;6.47;;;1.40;;
4963;SDS011;2497;47.410;9.740;2023-03-16T11:11:59;2.07;;;1.30;;
4963;SDS011;2497;47.410;9.740;2023-03-16T11:14:41;2.30;;;1.20;;
4963;SDS011;2497;47.410;9.740;2023-03-16T11:17:09;3.33;;;1.27;;
4963;SDS011;2497;47.410;9.740;2023-03-16T11:19:40;4.33;;;1.50;;
4963;SDS011;2497;47.410;9.740;2023-03-16T11:22:14;1.90;;;1.00;;
4963;SDS011;2497;47.410;9.740;2023-03-16T11:24:44;3.57;;;1.20;;
4963;SDS011;2497;47.410;9.740;2023-03-16T11:27:19;2.97;;;1.20;;
4963;SDS011;2497;47.410;9.740;2023-03-16T11:29:54;2.17;;;1.50;;
4963;SDS011;2497;47.410;9.740;2023-03-16T11:32:32;3.20;;;1.20;;
4963;SDS011;2497;47.410;9.740;2023-03-16T11:35:01;1.23;;;1.13;;
4963;SDS011;2497;47.410;9.740;2023-03-16T11:37:40;1.87;;;1.37;;
4963;SDS011;2497;47.410;9.740;2023-03-16T11:40:22;1.43;;;1.13;;
4963;SDS011;2497;47.410;9.740;2023-03-16T11:43:01;1.47;;;1.17;;
4963;SDS011;2497;47.410;9.740;2023-03-16T11:45:39;3.20;;;1.50;;
4963;SDS011;2497;47.410;9.740;2023-03-16T11:48:18;3.67;;;1.40;;
4963;SDS011;2497;47.410;9.740;2023-03-16T11:51:01;1.40;;;1.10;;
4963;SDS011;2497;47.410;9.740;2023-03-16T11:53:34;1.50;;;1.10;;
4963;SDS011;2497;47.410;9.740;2023-03-16T11:56:15;3.73;;;1.27;;
4963;SDS011;2497;47.410;9.740;2023-03-16T11:58:56;1.33;;;1.10;;
4963;SDS011;2497;47.410;9.740;2023-03-16T12:01:32;2.33;;;1.17;;
4963;SDS011;2497;47.410;9.740;2023-03-16T12:04:15;2.70;;;1.33;;
4963;SDS011;2497;47.410;9.740;2023-03-16T12:07:11;2.03;;;1.10;;
4963;SDS011;2497;47.410;9.740;2023-03-16T12:12:56;2.37;;;1.20;;
4963;SDS011;2497;47.410;9.740;2023-03-16T12:15:34;1.10;;;1.00;;
4963;SDS011;2497;47.410;9.740;2023-03-16T12:18:11;4.20;;;1.50;;
4963;SDS011;2497;47.410;9.740;2023-03-16T12:20:43;2.67;;;1.40;;
4963;SDS011;2497;47.410;9.740;2023-03-16T12:23:19;3.90;;;1.30;;
4963;SDS011;2497;47.410;9.740;2023-03-16T12:25:51;2.07;;;1.30;;
4963;SDS011;2497;47.410;9.740;2023-03-16T12:28:23;2.90;;;1.30;;
4963;SDS011;2497;47.410;9.740;2023-03-16T12:30:58;2.80;;;1.43;;
4963;SDS011;2497;47.410;9.740;2023-03-16T12:33:48;2.67;;;1.20;;
4963;SDS011;2497;47.410;9.740;2023-03-16T12:36:33;2.13;;;1.20;;
4963;SDS011;2497;47.410;9.740;2023-03-16T12:39:13;1.53;;;1.00;;
4963;SDS011;2497;47.410;9.740;2023-03-16T12:41:54;4.60;;;1.50;;
4963;SDS011;2497;47.410;9.740;2023-03-16T12:44:31;4.97;;;1.23;;
4963;SDS011;2497;47.410;9.740;2023-03-16T12:47:05;1.50;;;1.10;;
4963;SDS011;2497;47.410;9.740;2023-03-16T12:49:43;1.60;;;1.30;;
4963;SDS011;2497;47.410;9.740;2023-03-16T12:52:12;2.23;;;1.20;;
4963;SDS011;2497;47.410;9.740;2023-03-16T12:54:48;3.53;;;1.20;;
4963;SDS011;2497;47.410;9.740;2023-03-16T12:57:17;1.80;;;1.17;;
4963;SDS011;2497;47.410;9.740;2023-03-16T12:59:46;2.50;;;1.13;;
4963;SDS011;2497;47.410;9.740;2023-03-16T13:02:17;2.53;;;1.27;;
4963;SDS011;2497;47.410;9.740;2023-03-16T13:04:47;1.53;;;1.10;;
4963;SDS011;2497;47.410;9.740;2023-03-16T13:07:21;7.43;;;1.20;;
4963;SDS011;2497;47.410;9.740;2023-03-16T13:09:51;5.80;;;1.37;;
4963;SDS011;2497;47.410;9.740;2023-03-16T13:12:22;2.13;;;1.30;;
4963;SDS011;2497;47.410;9.740;2023-03-16T13:14:55;1.30;;;1.10;;
4963;SDS011;2497;47.410;9.740;2023-03-16T13:17:24;1.13;;;1.03;;
4963;SDS011;2497;47.410;9.740;2023-03-16T13:19:58;1.50;;;1.37;;
4963;SDS011;2497;47.410;9.740;2023-03-16T13:22:39;2.00;;;1.20;;
4963;SDS011;2497;47.410;9.740;2023-03-16T13:25:13;2.50;;;1.70;;
4963;SDS011;2497;47.410;9.740;2023-03-16T13:27:47;2.10;;;1.40;;
4963;SDS011;2497;47.410;9.740;2023-03-16T13:30:16;4.60;;;1.80;;
4963;SDS011;2497;47.410;9.740;2023-03-16T13:32:47;2.70;;;1.50;;
4963;SDS011;2497;47.410;9.740;2023-03-16T13:35:17;3.37;;;1.50;;
4963;SDS011;2497;47.410;9.740;2023-03-16T13:37:46;3.27;;;1.40;;
4963;SDS011;2497;47.410;9.740;2023-03-16T13:40:16;3.47;;;1.43;;
4963;SDS011;2497;47.410;9.740;2023-03-16T13:42:46;2.93;;;1.87;;
4963;SDS011;2497;47.410;9.740;2023-03-16T13:45:18;1.50;;;1.40;;
4963;SDS011;2497;47.410;9.740;2023-03-16T13:47:48;1.40;;;1.23;;
4963;SDS011;2497;47.410;9.740;2023-03-16T13:50:18;2.70;;;1.40;;
4963;SDS011;2497;47.410;9.740;2023-03-16T13:52:55;6.03;;;1.63;;
4963;SDS011;2497;47.410;9.740;2023-03-16T13:55:25;1.93;;;1.70;;
4963;SDS011;2497;47.410;9.740;2023-03-16T13:57:56;4.07;;;1.50;;
4963;SDS011;2497;47.410;9.740;2023-03-16T14:00:26;2.97;;;2.10;;
4963;SDS011;2497;47.410;9.740;2023-03-16T14:02:58;2.17;;;1.60;;
4963;SDS011;2497;47.410;9.740;2023-03-16T14:05:29;2.13;;;1.60;;
4963;SDS011;2497;47.410;9.740;2023-03-16T14:07:59;3.10;;;1.63;;
4963;SDS011;2497;47.410;9.740;2023-03-16T14:10:30;4.17;;;1.93;;
4963;SDS011;2497;47.410;9.740;2023-03-16T14:13:05;2.87;;;1.60;;
4963;SDS011;2497;47.410;9.740;2023-03-16T14:15:34;1.87;;;1.40;;
4963;SDS011;2497;47.410;9.740;2023-03-16T14:18:10;2.30;;;1.50;;
4963;SDS011;2497;47.410;9.740;2023-03-16T14:20:40;2.60;;;1.80;;
4963;SDS011;2497;47.410;9.740;2023-03-16T14:23:14;4.50;;;1.57;;
4963;SDS011;2497;47.410;9.740;2023-03-16T14:25:44;3.03;;;1.87;;
4963;SDS011;2497;47.410;9.740;2023-03-16T14:28:13;3.37;;;1.77;;
4963;SDS011;2497;47.410;9.740;2023-03-16T14:30:48;2.37;;;1.70;;
4963;SDS011;2497;47.410;9.740;2023-03-16T14:33:26;2.77;;;1.60;;
4963;SDS011;2497;47.410;9.740;2023-03-16T14:35:55;2.63;;;1.77;;
4963;SDS011;2497;47.410;9.740;2023-03-16T14:38:27;4.30;;;2.40;;
4963;SDS011;2497;47.410;9.740;2023-03-16T14:40:57;3.90;;;2.20;;
4963;SDS011;2497;47.410;9.740;2023-03-16T14:43:29;3.00;;;2.23;;
4963;SDS011;2497;47.410;9.740;2023-03-16T14:46:00;4.23;;;2.33;;
4963;SDS011;2497;47.410;9.740;2023-03-16T14:48:31;4.10;;;2.10;;
4963;SDS011;2497;47.410;9.740;2023-03-16T14:50:59;2.53;;;2.33;;
4963;SDS011;2497;47.410;9.740;2023-03-16T14:53:28;4.13;;;2.30;;
4963;SDS011;2497;47.410;9.740;2023-03-16T14:55:56;6.37;;;2.30;;
4963;SDS011;2497;47.410;9.740;2023-03-16T14:58:24;4.53;;;2.20;;
4963;SDS011;2497;47.410;9.740;2023-03-16T15:00:52;4.20;;;2.43;;
4963;SDS011;2497;47.410;9.740;2023-03-16T15:03:21;3.53;;;2.07;;
4963;SDS011;2497;47.410;9.740;2023-03-16T15:05:58;3.60;;;2.50;;
4963;SDS011;2497;47.410;9.740;2023-03-16T15:08:26;4.17;;;2.60;;
4963;SDS011;2497;47.410;9.740;2023-03-16T15:10:56;4.07;;;2.33;;
4963;SDS011;2497;47.410;9.740;2023-03-16T15:13:26;3.50;;;2.10;;
4963;SDS011;2497;47.410;9.740;2023-03-16T15:16:16;5.23;;;2.60;;
4963;SDS011;2497;47.410;9.740;2023-03-16T15:18:45;2.93;;;2.60;;
4963;SDS011;2497;47.410;9.740;2023-03-16T15:21:15;4.93;;;2.77;;
4963;SDS011;2497;47.410;9.740;2023-03-16T15:23:44;6.77;;;2.70;;
4963;SDS011;2497;47.410;9.740;2023-03-16T15:26:12;4.57;;;3.00;;
4963;SDS011;2497;47.410;9.740;2023-03-16T15:28:41;3.20;;;2.40;;
4963;SDS011;2497;47.410;9.740;2023-03-16T15:31:09;4.63;;;2.60;;
4963;SDS011;2497;47.410;9.740;2023-03-16T15:33:38;4.07;;;2.30;;
4963;SDS011;2497;47.410;9.740;2023-03-16T15:36:09;9.43;;;2.60;;